createdAt,value
2018-12-12T00:00:11.149Z,3.13
2018-12-12T00:02:53.264Z,3.13
2018-12-12T00:05:35.709Z,3.45
2018-12-12T00:08:18.281Z,3.02
2018-12-12T00:11:00.838Z,3.02
2018-12-12T00:13:43.401Z,3.08
2018-12-12T00:16:26.436Z,3.04
2018-12-12T00:19:08.519Z,2.88
2018-12-12T00:21:50.862Z,3.04
2018-12-12T00:24:32.625Z,3.07
2018-12-12T00:27:15.041Z,3.07
2018-12-12T00:29:57.012Z,3.10
2018-12-12T00:32:39.419Z,3.01
2018-12-12T00:35:21.859Z,3.10
2018-12-12T00:38:03.295Z,3.24
2018-12-12T00:40:44.874Z,3.33
2018-12-12T00:43:26.615Z,3.31
2018-12-12T00:46:09.021Z,3.38
2018-12-12T00:48:50.898Z,3.23
2018-12-12T00:51:33.480Z,3.09
2018-12-12T00:54:15.331Z,3.17
2018-12-12T00:56:57.205Z,3.29
2018-12-12T00:59:38.896Z,3.07
2018-12-12T01:02:21.479Z,2.99
2018-12-12T01:05:04.263Z,3.00
2018-12-12T01:07:46.438Z,3.01
2018-12-12T01:10:28.754Z,3.03
2018-12-12T01:13:10.621Z,3.06
2018-12-12T01:15:53.376Z,3.09
2018-12-12T01:18:35.197Z,3.19
2018-12-12T01:21:17.324Z,3.23
2018-12-12T01:23:59.346Z,2.99
2018-12-12T01:26:41.176Z,3.13
2018-12-12T01:29:23.372Z,3.11
2018-12-12T01:32:05.521Z,3.10
2018-12-12T01:34:47.724Z,3.20
2018-12-12T01:37:29.435Z,3.19
2018-12-12T01:40:12.028Z,3.21
2018-12-12T01:42:54.741Z,3.13
2018-12-12T01:45:37.210Z,3.00
2018-12-12T01:48:19.588Z,3.18
2018-12-12T01:51:01.379Z,3.13
2018-12-12T01:53:46.520Z,3.05
2018-12-12T01:56:28.225Z,3.06
2018-12-12T01:59:10.673Z,3.09
2018-12-12T02:01:53.854Z,3.27
2018-12-12T02:04:35.848Z,3.19
2018-12-12T02:07:18.105Z,3.30
2018-12-12T02:10:00.968Z,3.31
2018-12-12T02:12:42.788Z,3.37
2018-12-12T02:15:24.573Z,3.40
2018-12-12T02:18:07.164Z,3.39
2018-12-12T02:20:49.411Z,3.31
2018-12-12T02:23:30.873Z,3.25
2018-12-12T02:26:12.888Z,3.30
2018-12-12T02:28:55.188Z,3.35
2018-12-12T02:31:37.605Z,3.18
2018-12-12T02:34:20.194Z,3.15
2018-12-12T02:37:02.562Z,3.16
2018-12-12T02:39:44.994Z,2.83
2018-12-12T02:42:26.566Z,2.71
2018-12-12T02:45:09.819Z,2.83
2018-12-12T02:47:51.714Z,2.88
2018-12-12T02:50:33.214Z,2.91
2018-12-12T02:53:14.952Z,3.02
2018-12-12T02:55:58.217Z,3.02
2018-12-12T02:58:40.129Z,2.89
2018-12-12T03:01:22.650Z,2.78
2018-12-12T03:04:05.053Z,2.65
2018-12-12T03:06:46.628Z,2.60
2018-12-12T03:09:28.439Z,2.58
2018-12-12T03:12:10.624Z,2.66
2018-12-12T03:14:52.523Z,2.56
2018-12-12T03:17:34.609Z,2.48
2018-12-12T03:20:16.127Z,2.36
2018-12-12T03:22:58.423Z,2.12
2018-12-12T03:25:40.425Z,2.03
2018-12-12T03:28:22.219Z,2.20
2018-12-12T03:31:04.177Z,2.14
2018-12-12T03:33:45.902Z,2.21
2018-12-12T03:36:28.400Z,2.21
2018-12-12T03:39:10.864Z,2.25
2018-12-12T03:41:53.520Z,2.10
2018-12-12T03:44:35.733Z,1.95
2018-12-12T03:47:18.350Z,2.04
2018-12-12T03:50:01.233Z,2.14
2018-12-12T03:52:43.579Z,2.31
2018-12-12T03:55:25.968Z,2.44
2018-12-12T03:58:07.636Z,2.52
2018-12-12T04:00:50.554Z,2.60
2018-12-12T04:03:32.873Z,2.62
2018-12-12T04:06:15.636Z,2.60
2018-12-12T04:08:58.009Z,2.48
2018-12-12T04:11:40.411Z,2.29
2018-12-12T04:14:22.102Z,2.45
2018-12-12T04:17:04.612Z,2.56
2018-12-12T04:19:47.175Z,2.41
2018-12-12T04:22:29.980Z,2.45
2018-12-12T04:25:12.502Z,2.63
2018-12-12T04:27:54.448Z,2.76
2018-12-12T04:30:36.137Z,2.81
2018-12-12T04:33:18.007Z,2.82
2018-12-12T04:36:00.608Z,2.64
2018-12-12T04:38:42.246Z,2.67
2018-12-12T04:41:24.302Z,2.87
2018-12-12T04:44:06.694Z,2.99
2018-12-12T04:46:49.240Z,3.01
2018-12-12T04:49:33.082Z,3.01
2018-12-12T04:52:15.679Z,3.05
2018-12-12T04:54:57.626Z,3.02
2018-12-12T04:57:39.488Z,3.05
2018-12-12T05:00:22.210Z,3.07
2018-12-12T05:03:05.102Z,3.18
2018-12-12T05:05:47.030Z,3.19
2018-12-12T05:08:29.229Z,3.19
2018-12-12T05:11:10.804Z,3.21
2018-12-12T05:13:52.497Z,3.11
2018-12-12T05:16:33.988Z,3.25
2018-12-12T05:19:15.793Z,3.16
2018-12-12T05:21:58.099Z,3.14
2018-12-12T05:24:39.974Z,3.27
2018-12-12T05:27:22.182Z,3.28
2018-12-12T05:30:03.812Z,3.19
2018-12-12T05:32:45.365Z,3.15
2018-12-12T05:35:27.776Z,3.21
2018-12-12T05:38:10.085Z,3.20
2018-12-12T05:40:52.174Z,3.25
2018-12-12T05:43:34.581Z,3.28
2018-12-12T05:46:16.907Z,3.30
2018-12-12T05:48:59.845Z,3.28
2018-12-12T05:51:42.218Z,3.41
2018-12-12T05:54:24.211Z,3.32
2018-12-12T05:57:06.160Z,3.38
2018-12-12T05:59:48.005Z,3.40
2018-12-12T06:02:30.825Z,3.25
2018-12-12T06:05:12.620Z,3.19
2018-12-12T06:07:54.404Z,3.22
2018-12-12T06:10:35.830Z,3.27
2018-12-12T06:13:17.821Z,3.12
2018-12-12T06:15:59.806Z,3.20
2018-12-12T06:18:41.170Z,3.23
2018-12-12T06:21:22.979Z,3.25
2018-12-12T06:24:05.467Z,3.22
2018-12-12T06:26:47.968Z,3.28
2018-12-12T06:29:30.114Z,3.25
2018-12-12T06:32:11.767Z,3.19
2018-12-12T06:34:54.674Z,3.19
2018-12-12T06:37:37.037Z,3.12
2018-12-12T06:40:19.483Z,3.06
2018-12-12T06:43:02.009Z,3.02
2018-12-12T06:45:44.591Z,2.86
2018-12-12T06:48:26.905Z,2.91
2018-12-12T06:51:10.101Z,2.93
2018-12-12T06:53:52.051Z,3.06
2018-12-12T06:56:34.859Z,2.95
2018-12-12T06:59:17.072Z,2.96
2018-12-12T07:01:58.949Z,2.87
2018-12-12T07:04:41.631Z,2.99
2018-12-12T07:07:24.034Z,3.05
2018-12-12T07:10:06.538Z,2.99
2018-12-12T07:12:48.041Z,3.08
2018-12-12T07:15:29.562Z,3.05
2018-12-12T07:18:12.026Z,2.97
2018-12-12T07:20:53.952Z,3.02
2018-12-12T07:23:36.780Z,3.00
2018-12-12T07:26:18.852Z,2.92
2018-12-12T07:29:01.106Z,3.02
2018-12-12T07:31:44.006Z,3.00
2018-12-12T07:34:26.808Z,3.05
2018-12-12T07:37:08.735Z,3.13
2018-12-12T07:39:51.731Z,3.11
2018-12-12T07:42:33.831Z,3.14
2018-12-12T07:45:16.642Z,3.13
2018-12-12T07:48:01.575Z,3.08
2018-12-12T07:50:44.075Z,3.11
2018-12-12T07:53:26.688Z,3.23
2018-12-12T07:56:08.462Z,3.20
2018-12-12T07:58:50.948Z,3.18
2018-12-12T08:01:33.509Z,2.97
2018-12-12T08:04:15.762Z,3.09
2018-12-12T08:06:57.801Z,3.30
2018-12-12T08:09:41.082Z,3.26
2018-12-12T08:12:23.617Z,3.34
2018-12-12T08:15:05.610Z,3.45
2018-12-12T08:17:47.505Z,3.46
2018-12-12T08:20:29.593Z,3.48
2018-12-12T08:23:12.277Z,3.39
2018-12-12T08:25:54.354Z,3.60
2018-12-12T08:28:36.019Z,3.46
2018-12-12T08:31:18.304Z,3.51
2018-12-12T08:33:59.813Z,3.47
2018-12-12T08:36:41.623Z,3.47
2018-12-12T08:39:23.409Z,3.57
2018-12-12T08:42:07.897Z,3.76
2018-12-12T08:44:50.556Z,3.71
2018-12-12T08:47:32.657Z,3.82
2018-12-12T08:50:14.561Z,3.73
2018-12-12T08:52:56.661Z,3.51
2018-12-12T08:55:38.825Z,3.61
2018-12-12T08:58:20.855Z,3.51
2018-12-12T09:01:02.354Z,3.80
2018-12-12T09:03:44.124Z,3.86
2018-12-12T09:06:26.815Z,3.74
2018-12-12T09:09:09.633Z,3.86
2018-12-12T09:11:51.939Z,3.89
2018-12-12T09:14:34.084Z,3.78
2018-12-12T09:17:15.798Z,4.00
2018-12-12T09:19:58.365Z,3.90
2018-12-12T09:22:40.806Z,3.98
2018-12-12T09:25:22.745Z,4.25
2018-12-12T09:28:05.481Z,4.13
2018-12-12T09:30:47.645Z,4.19
2018-12-12T09:33:30.031Z,4.25
2018-12-12T09:36:11.933Z,4.26
2018-12-12T09:38:54.202Z,4.37
2018-12-12T09:41:35.798Z,4.28
2018-12-12T09:44:17.450Z,4.33
2018-12-12T09:46:59.873Z,4.23
2018-12-12T09:49:41.569Z,4.22
2018-12-12T09:52:24.078Z,4.13
2018-12-12T09:55:05.503Z,4.30
2018-12-12T09:57:46.924Z,4.35
2018-12-12T10:00:28.894Z,4.40
2018-12-12T10:03:10.946Z,4.31
2018-12-12T10:05:53.223Z,4.23
2018-12-12T10:08:35.181Z,4.34
2018-12-12T10:11:16.946Z,4.59
2018-12-12T10:13:59.161Z,4.66
2018-12-12T10:16:41.245Z,4.68
2018-12-12T10:19:22.980Z,4.63
2018-12-12T10:22:05.105Z,4.82
2018-12-12T10:24:47.934Z,4.96
2018-12-12T10:27:30.176Z,5.17
2018-12-12T10:30:12.559Z,4.61
2018-12-12T10:32:55.390Z,4.55
2018-12-12T10:35:37.488Z,4.53
2018-12-12T10:38:19.726Z,4.49
2018-12-12T10:41:01.465Z,4.14
2018-12-12T10:43:43.897Z,4.20
2018-12-12T10:46:26.469Z,4.32
2018-12-12T10:49:09.301Z,4.29
2018-12-12T10:51:51.743Z,4.14
2018-12-12T10:54:33.805Z,4.17
2018-12-12T10:57:15.411Z,3.93
2018-12-12T10:59:57.896Z,3.86
2018-12-12T11:02:45.747Z,3.96
2018-12-12T11:05:28.294Z,4.19
2018-12-12T11:08:10.342Z,4.15
2018-12-12T11:10:52.579Z,3.95
2018-12-12T11:13:35.675Z,4.02
2018-12-12T11:16:18.324Z,3.97
2018-12-12T11:19:00.603Z,3.92
2018-12-12T11:21:42.765Z,4.25
2018-12-12T11:24:24.882Z,4.52
2018-12-12T11:27:07.009Z,5.18
2018-12-12T11:29:48.891Z,5.42
2018-12-12T11:32:31.418Z,5.47
2018-12-12T11:35:14.102Z,4.68
2018-12-12T11:37:57.330Z,4.49
2018-12-12T11:40:39.124Z,4.89
2018-12-12T11:43:29.282Z,4.66
2018-12-12T11:46:19.226Z,4.84
2018-12-12T11:49:01.909Z,4.72
2018-12-12T11:51:44.112Z,4.89
2018-12-12T11:54:26.814Z,4.77
2018-12-12T11:57:09.298Z,4.61
2018-12-12T11:59:51.249Z,4.75
2018-12-12T12:02:35.739Z,4.62
2018-12-12T12:05:39.502Z,4.35
2018-12-12T12:11:32.407Z,4.29
2018-12-12T12:14:14.229Z,4.41
2018-12-12T12:16:57.179Z,4.39
2018-12-12T12:19:39.086Z,4.43
2018-12-12T12:22:20.810Z,4.43
2018-12-12T12:25:03.454Z,4.90
2018-12-12T12:27:45.725Z,5.00
2018-12-12T12:30:27.814Z,5.58
2018-12-12T12:33:09.502Z,5.21
2018-12-12T12:35:52.010Z,5.29
2018-12-12T12:38:34.322Z,6.56
2018-12-12T12:41:16.207Z,5.60
2018-12-12T12:43:58.588Z,7.20
2018-12-12T12:46:40.938Z,5.61
2018-12-12T12:49:22.685Z,5.91
2018-12-12T12:52:04.909Z,5.56
2018-12-12T12:54:47.313Z,5.55
2018-12-12T12:57:31.809Z,5.43
2018-12-12T13:00:15.674Z,5.60
2018-12-12T13:02:59.617Z,6.06
2018-12-12T13:05:44.384Z,7.55
2018-12-12T13:08:26.597Z,7.94
2018-12-12T13:11:14.781Z,8.22
2018-12-12T13:13:56.556Z,7.65
2018-12-12T13:16:40.183Z,7.25
2018-12-12T13:19:22.481Z,6.72
2018-12-12T13:22:06.840Z,7.55
2018-12-12T13:24:53.781Z,8.79
2018-12-12T13:27:36.494Z,8.02
2018-12-12T13:30:19.337Z,8.05
2018-12-12T13:33:02.420Z,7.00
2018-12-12T13:35:47.144Z,6.26
2018-12-12T13:38:30.541Z,5.85
2018-12-12T13:41:13.993Z,5.58
2018-12-12T13:43:57.544Z,5.16
2018-12-12T13:46:41.585Z,4.84
2018-12-12T13:49:23.894Z,4.65
2018-12-12T13:52:09.103Z,4.72
2018-12-12T13:54:51.800Z,5.02
2018-12-12T13:57:35.166Z,6.66
2018-12-12T14:00:18.353Z,6.01
2018-12-12T14:03:00.884Z,7.43
2018-12-12T14:05:43.548Z,7.19
2018-12-12T14:08:26.204Z,7.53
2018-12-12T14:11:08.612Z,7.39
2018-12-12T14:13:52.597Z,6.49
2018-12-12T14:16:35.284Z,6.07
2018-12-12T14:19:16.760Z,5.41
2018-12-12T14:21:58.291Z,4.99
2018-12-12T14:24:39.775Z,4.78
2018-12-12T14:27:21.703Z,4.63
2018-12-12T14:30:05.415Z,4.39
2018-12-12T14:32:49.410Z,4.22
2018-12-12T14:35:32.849Z,4.30
2018-12-12T14:38:14.997Z,4.05
2018-12-12T14:40:57.177Z,4.02
2018-12-12T14:43:38.740Z,3.92
2018-12-12T14:46:21.642Z,3.87
2018-12-12T14:49:04.487Z,3.84
2018-12-12T14:51:46.655Z,3.75
2018-12-12T14:54:29.594Z,3.70
2018-12-12T14:57:11.223Z,3.67
2018-12-12T14:59:53.764Z,3.52
2018-12-12T15:02:35.472Z,3.53
2018-12-12T15:05:20.513Z,3.46
2018-12-12T15:08:02.458Z,3.33
2018-12-12T15:10:44.830Z,3.35
2018-12-12T15:13:26.511Z,3.28
2018-12-12T15:16:07.857Z,3.14
2018-12-12T15:18:49.514Z,3.14
2018-12-12T15:21:32.372Z,3.10
2018-12-12T15:24:14.130Z,2.99
2018-12-12T15:26:55.945Z,2.98
2018-12-12T15:29:37.407Z,2.92
2018-12-12T15:32:18.811Z,3.01
2018-12-12T15:35:00.607Z,2.82
2018-12-12T15:37:42.827Z,2.74
2018-12-12T15:40:25.014Z,2.62
2018-12-12T15:43:06.901Z,2.62
2018-12-12T15:45:48.582Z,2.61
2018-12-12T15:48:30.070Z,2.50
2018-12-12T15:51:11.482Z,2.53
2018-12-12T15:53:54.936Z,2.59
2018-12-12T15:56:36.697Z,2.55
2018-12-12T15:59:22.249Z,2.49
2018-12-12T16:02:04.631Z,2.58
2018-12-12T16:04:49.134Z,2.79
2018-12-12T16:07:37.078Z,2.95
2018-12-12T16:10:20.781Z,3.04
2018-12-12T16:13:03.592Z,3.10
2018-12-12T16:15:45.838Z,3.16
2018-12-12T16:18:28.494Z,3.14
2018-12-12T16:21:11.014Z,3.16
2018-12-12T16:23:53.878Z,3.15
2018-12-12T16:26:35.402Z,3.21
2018-12-12T16:29:17.168Z,3.15
2018-12-12T16:31:59.731Z,3.27
2018-12-12T16:34:42.854Z,3.33
2018-12-12T16:37:24.469Z,3.45
2018-12-12T16:40:07.339Z,3.40
2018-12-12T16:42:50.248Z,3.51
2018-12-12T16:45:32.284Z,3.44
2018-12-12T16:48:15.372Z,3.50
2018-12-12T16:50:57.122Z,3.36
2018-12-12T16:53:40.510Z,3.35
2018-12-12T16:56:22.027Z,3.30
2018-12-12T16:59:04.249Z,3.60
2018-12-12T17:01:47.025Z,3.52
2018-12-12T17:04:29.764Z,3.60
2018-12-12T17:07:12.148Z,3.43
2018-12-12T17:09:54.806Z,3.38
2018-12-12T17:12:38.044Z,3.43
2018-12-12T17:15:20.094Z,3.39
2018-12-12T17:18:04.948Z,3.39
2018-12-12T17:20:50.564Z,3.33
2018-12-12T17:23:33.099Z,3.26
2018-12-12T17:26:14.998Z,3.15
2018-12-12T17:28:58.407Z,2.99
2018-12-12T17:31:40.570Z,2.82
2018-12-12T17:34:22.501Z,2.76
2018-12-12T17:37:05.494Z,2.67
2018-12-12T17:39:49.045Z,2.68
2018-12-12T17:42:31.606Z,2.75
2018-12-12T17:45:19.008Z,2.62
2018-12-12T17:48:04.729Z,2.55
2018-12-12T17:50:47.863Z,2.54
2018-12-12T17:53:30.471Z,2.52
2018-12-12T17:56:12.415Z,2.46
2018-12-12T17:58:53.991Z,2.25
2018-12-12T18:01:35.533Z,2.27
2018-12-12T18:04:17.911Z,2.22
2018-12-12T18:06:59.645Z,2.22
2018-12-12T18:09:41.541Z,2.14
2018-12-12T18:12:23.701Z,1.99
2018-12-12T18:15:06.087Z,1.90
2018-12-12T18:17:47.777Z,1.82
2018-12-12T18:20:30.662Z,1.72
2018-12-12T18:23:13.210Z,1.57
2018-12-12T18:25:55.322Z,1.70
2018-12-12T18:28:38.106Z,1.67
2018-12-12T18:31:21.026Z,1.60
2018-12-12T18:34:03.105Z,1.51
2018-12-12T18:36:45.222Z,1.30
2018-12-12T18:39:27.407Z,1.32
2018-12-12T18:42:09.555Z,1.51
2018-12-12T18:44:52.060Z,1.59
2018-12-12T18:47:34.741Z,1.65
2018-12-12T18:50:17.362Z,1.58
2018-12-12T18:52:59.554Z,1.66
2018-12-12T18:55:41.860Z,1.58
2018-12-12T18:58:24.106Z,1.51
2018-12-12T19:01:07.598Z,1.56
2018-12-12T19:03:49.538Z,1.60
2018-12-12T19:06:32.617Z,1.68
2018-12-12T19:09:14.596Z,1.76
2018-12-12T19:11:58.028Z,1.76
2018-12-12T19:14:45.465Z,1.81
2018-12-12T19:17:27.969Z,1.80
2018-12-12T19:20:11.681Z,1.80
2018-12-12T19:22:54.539Z,1.69
2018-12-12T19:25:36.418Z,1.84
2018-12-12T19:28:19.555Z,1.77
2018-12-12T19:31:02.391Z,1.67
2018-12-12T19:33:44.633Z,1.65
2018-12-12T19:36:26.720Z,1.72
2018-12-12T19:39:10.295Z,1.64
2018-12-12T19:41:52.549Z,1.60
2018-12-12T19:44:34.958Z,1.71
2018-12-12T19:47:19.877Z,1.60
2018-12-12T19:50:03.942Z,1.54
2018-12-12T19:52:47.040Z,1.56
2018-12-12T19:55:31.552Z,1.58
2018-12-12T19:58:16.841Z,1.41
2018-12-12T20:00:59.441Z,1.50
2018-12-12T20:03:41.851Z,1.56
2018-12-12T20:06:24.570Z,1.37
2018-12-12T20:09:07.749Z,1.38
2018-12-12T20:11:49.490Z,1.37
2018-12-12T20:14:31.911Z,1.19
2018-12-12T20:17:14.466Z,1.25
2018-12-12T20:19:55.950Z,1.19
2018-12-12T20:22:38.030Z,1.11
2018-12-12T20:25:20.292Z,1.23
2018-12-12T20:28:01.930Z,1.30
2018-12-12T20:30:44.807Z,1.42
2018-12-12T20:33:27.270Z,1.50
2018-12-12T20:36:09.511Z,1.62
2018-12-12T20:38:51.908Z,1.61
2018-12-12T20:41:34.170Z,1.60
2018-12-12T20:44:16.778Z,1.51
2018-12-12T20:46:59.218Z,1.54
2018-12-12T20:49:41.062Z,1.61
2018-12-12T20:52:24.421Z,1.64
2018-12-12T20:55:06.147Z,1.65
2018-12-12T20:57:48.539Z,1.69
2018-12-12T21:00:29.994Z,1.79
2018-12-12T21:03:11.820Z,1.90
2018-12-12T21:05:54.735Z,1.85
2018-12-12T21:08:36.940Z,1.98
2018-12-12T21:11:18.571Z,2.04
2018-12-12T21:14:01.580Z,2.14
2018-12-12T21:16:43.420Z,2.19
2018-12-12T21:19:25.242Z,2.27
2018-12-12T21:22:37.422Z,2.27
2018-12-12T21:28:57.303Z,2.18
2018-12-12T21:31:40.547Z,2.23
2018-12-12T21:34:22.439Z,2.20
2018-12-12T21:37:05.373Z,2.14
2018-12-12T21:39:47.576Z,2.06
2018-12-12T21:42:30.478Z,2.05
2018-12-12T21:45:13.738Z,1.96
2018-12-12T21:47:56.579Z,1.96
2018-12-12T21:50:39.253Z,2.06
2018-12-12T21:53:21.358Z,2.17
2018-12-12T21:56:03.790Z,2.14
2018-12-12T21:58:45.964Z,2.27
2018-12-12T22:01:28.357Z,2.24
2018-12-12T22:04:10.367Z,2.18
2018-12-12T22:06:52.966Z,2.04
2018-12-12T22:09:35.375Z,2.04
2018-12-12T22:12:18.136Z,1.99
2018-12-12T22:15:00.983Z,2.02
2018-12-12T22:17:42.751Z,2.06
2018-12-12T22:20:25.483Z,2.03
2018-12-12T22:23:08.225Z,2.09
2018-12-12T22:25:50.794Z,2.14
2018-12-12T22:28:33.119Z,2.32
2018-12-12T22:31:15.923Z,2.22
2018-12-12T22:33:58.952Z,2.32
2018-12-12T22:36:41.923Z,2.35
2018-12-12T22:39:24.131Z,2.30
2018-12-12T22:42:07.435Z,2.34
2018-12-12T22:44:49.852Z,2.34
2018-12-12T22:47:33.136Z,2.36
2018-12-12T22:50:15.607Z,2.40
2018-12-12T22:52:57.839Z,2.29
2018-12-12T22:55:42.680Z,2.31
2018-12-12T22:58:24.991Z,2.38
2018-12-12T23:01:12.495Z,2.52
2018-12-12T23:03:55.223Z,2.53
2018-12-12T23:06:37.435Z,2.55
2018-12-12T23:09:20.976Z,2.58
2018-12-12T23:12:04.809Z,2.48
2018-12-12T23:14:47.228Z,2.47
2018-12-12T23:17:29.909Z,2.43
2018-12-12T23:20:12.276Z,2.48
2018-12-12T23:22:54.887Z,2.40
2018-12-12T23:25:37.812Z,2.50
2018-12-12T23:28:20.472Z,2.51
2018-12-12T23:31:03.398Z,2.53
2018-12-12T23:33:46.179Z,2.47
2018-12-12T23:36:28.279Z,2.56
2018-12-12T23:39:11.051Z,2.47
2018-12-12T23:41:53.360Z,2.31
2018-12-12T23:44:35.304Z,2.50
2018-12-12T23:47:17.627Z,2.41
2018-12-12T23:49:59.692Z,2.37
2018-12-12T23:52:42.001Z,2.37
2018-12-12T23:55:25.091Z,2.30
2018-12-12T23:58:07.023Z,2.34
